sensor_id;sensor_type;location;lat;lon;timestamp;P1;durP1;ratioP1;P2;durP2;ratioP2
70045;SDS011;57385;41.832;23.494;2022-09-09T00:00:15;9.73;;;7.82;;
70045;SDS011;57385;41.832;23.494;2022-09-09T00:00:37;10.32;;;7.53;;
70045;SDS011;57385;41.832;23.494;2022-09-09T00:01:09;12.18;;;7.35;;
70045;SDS011;57385;41.832;23.494;2022-09-09T00:02:18;14.00;;;8.48;;
70045;SDS011;57385;41.832;23.494;2022-09-09T00:02:40;12.98;;;8.35;;
70045;SDS011;57385;41.832;23.494;2022-09-09T00:03:26;12.57;;;8.40;;
70045;SDS011;57385;41.832;23.494;2022-09-09T00:04:58;13.77;;;8.27;;
70045;SDS011;57385;41.832;23.494;2022-09-09T00:05:27;14.13;;;8.73;;
70045;SDS011;57385;41.832;23.494;2022-09-09T00:05:55;15.43;;;9.18;;
70045;SDS011;57385;41.832;23.494;2022-09-09T00:06:28;12.90;;;8.02;;
70045;SDS011;57385;41.832;23.494;2022-09-09T00:07:42;14.88;;;8.65;;
70045;SDS011;57385;41.832;23.494;2022-09-09T00:08:07;13.63;;;8.35;;
70045;SDS011;57385;41.832;23.494;2022-09-09T00:09:41;13.25;;;8.73;;
70045;SDS011;57385;41.832;23.494;2022-09-09T00:10:21;17.92;;;8.77;;
70045;SDS011;57385;41.832;23.494;2022-09-09T00:10:52;13.05;;;8.45;;
70045;SDS011;57385;41.832;23.494;2022-09-09T00:11:18;13.40;;;8.85;;
70045;SDS011;57385;41.832;23.494;2022-09-09T00:12:24;10.93;;;8.57;;
70045;SDS011;57385;41.832;23.494;2022-09-09T00:12:59;14.48;;;8.70;;
70045;SDS011;57385;41.832;23.494;2022-09-09T00:13:34;12.30;;;9.05;;
70045;SDS011;57385;41.832;23.494;2022-09-09T00:13:59;17.50;;;8.65;;
70045;SDS011;57385;41.832;23.494;2022-09-09T00:14:39;13.82;;;9.70;;
70045;SDS011;57385;41.832;23.494;2022-09-09T00:15:13;12.90;;;9.18;;
70045;SDS011;57385;41.832;23.494;2022-09-09T00:15:44;15.88;;;9.23;;
70045;SDS011;57385;41.832;23.494;2022-09-09T00:16:15;17.25;;;9.38;;
70045;SDS011;57385;41.832;23.494;2022-09-09T00:16:40;14.10;;;8.77;;
70045;SDS011;57385;41.832;23.494;2022-09-09T00:17:12;14.68;;;9.00;;
70045;SDS011;57385;41.832;23.494;2022-09-09T00:17:43;15.00;;;8.88;;
70045;SDS011;57385;41.832;23.494;2022-09-09T00:19:21;14.38;;;9.07;;
70045;SDS011;57385;41.832;23.494;2022-09-09T00:19:50;14.32;;;9.18;;
70045;SDS011;57385;41.832;23.494;2022-09-09T00:21:17;16.75;;;9.70;;
70045;SDS011;57385;41.832;23.494;2022-09-09T00:21:38;13.70;;;8.93;;
70045;SDS011;57385;41.832;23.494;2022-09-09T00:22:13;12.25;;;8.95;;
70045;SDS011;57385;41.832;23.494;2022-09-09T00:22:38;13.65;;;9.70;;
70045;SDS011;57385;41.832;23.494;2022-09-09T00:23:45;16.70;;;9.43;;
70045;SDS011;57385;41.832;23.494;2022-09-09T00:24:23;16.83;;;9.57;;
70045;SDS011;57385;41.832;23.494;2022-09-09T00:24:49;13.35;;;9.35;;
70045;SDS011;57385;41.832;23.494;2022-09-09T00:25:12;14.98;;;9.18;;
70045;SDS011;57385;41.832;23.494;2022-09-09T00:25:40;15.50;;;9.60;;
70045;SDS011;57385;41.832;23.494;2022-09-09T00:26:09;15.93;;;9.70;;
70045;SDS011;57385;41.832;23.494;2022-09-09T00:26:41;15.35;;;9.70;;
70045;SDS011;57385;41.832;23.494;2022-09-09T00:27:07;13.52;;;9.48;;
70045;SDS011;57385;41.832;23.494;2022-09-09T00:27:33;17.80;;;9.88;;
70045;SDS011;57385;41.832;23.494;2022-09-09T00:27:58;14.02;;;9.77;;
70045;SDS011;57385;41.832;23.494;2022-09-09T00:28:18;13.33;;;9.37;;
70045;SDS011;57385;41.832;23.494;2022-09-09T00:28:45;15.80;;;9.90;;
70045;SDS011;57385;41.832;23.494;2022-09-09T00:29:33;18.42;;;10.00;;
70045;SDS011;57385;41.832;23.494;2022-09-09T00:29:54;14.77;;;9.98;;
70045;SDS011;57385;41.832;23.494;2022-09-09T00:30:26;18.75;;;10.57;;
70045;SDS011;57385;41.832;23.494;2022-09-09T00:30:48;15.40;;;10.23;;
70045;SDS011;57385;41.832;23.494;2022-09-09T00:31:11;17.87;;;10.67;;
70045;SDS011;57385;41.832;23.494;2022-09-09T00:31:42;15.43;;;10.40;;
70045;SDS011;57385;41.832;23.494;2022-09-09T00:32:07;14.48;;;9.93;;
70045;SDS011;57385;41.832;23.494;2022-09-09T00:32:31;13.57;;;10.02;;
70045;SDS011;57385;41.832;23.494;2022-09-09T00:32:59;13.55;;;10.00;;
70045;SDS011;57385;41.832;23.494;2022-09-09T00:33:22;14.50;;;10.07;;
70045;SDS011;57385;41.832;23.494;2022-09-09T00:33:43;17.17;;;9.52;;
70045;SDS011;57385;41.832;23.494;2022-09-09T00:34:05;16.00;;;9.70;;
70045;SDS011;57385;41.832;23.494;2022-09-09T00:34:31;15.30;;;9.80;;
70045;SDS011;57385;41.832;23.494;2022-09-09T00:34:56;14.50;;;9.77;;
70045;SDS011;57385;41.832;23.494;2022-09-09T00:35:37;17.20;;;9.80;;
70045;SDS011;57385;41.832;23.494;2022-09-09T00:36:00;18.75;;;9.73;;
70045;SDS011;57385;41.832;23.494;2022-09-09T00:36:21;15.95;;;9.85;;
70045;SDS011;57385;41.832;23.494;2022-09-09T00:36:43;15.98;;;10.20;;
70045;SDS011;57385;41.832;23.494;2022-09-09T00:37:04;15.23;;;9.88;;
70045;SDS011;57385;41.832;23.494;2022-09-09T00:37:25;14.98;;;10.32;;
70045;SDS011;57385;41.832;23.494;2022-09-09T00:37:46;16.13;;;9.55;;
70045;SDS011;57385;41.832;23.494;2022-09-09T00:38:22;16.25;;;9.63;;
70045;SDS011;57385;41.832;23.494;2022-09-09T00:38:59;21.15;;;10.27;;
70045;SDS011;57385;41.832;23.494;2022-09-09T00:39:40;17.83;;;9.95;;
70045;SDS011;57385;41.832;23.494;2022-09-09T00:40:02;17.58;;;9.90;;
70045;SDS011;57385;41.832;23.494;2022-09-09T00:40:37;17.38;;;10.10;;
70045;SDS011;57385;41.832;23.494;2022-09-09T00:42:25;16.02;;;9.80;;
70045;SDS011;57385;41.832;23.494;2022-09-09T00:42:53;14.60;;;9.68;;
70045;SDS011;57385;41.832;23.494;2022-09-09T00:43:30;15.95;;;9.60;;
70045;SDS011;57385;41.832;23.494;2022-09-09T00:44:00;17.45;;;10.07;;
70045;SDS011;57385;41.832;23.494;2022-09-09T00:48:06;13.95;;;9.98;;
70045;SDS011;57385;41.832;23.494;2022-09-09T00:48:33;17.25;;;10.75;;
70045;SDS011;57385;41.832;23.494;2022-09-09T00:49:09;15.57;;;9.77;;
70045;SDS011;57385;41.832;23.494;2022-09-09T00:51:15;14.07;;;9.20;;
70045;SDS011;57385;41.832;23.494;2022-09-09T00:51:54;17.08;;;10.80;;
70045;SDS011;57385;41.832;23.494;2022-09-09T00:56:16;12.95;;;9.57;;
70045;SDS011;57385;41.832;23.494;2022-09-09T00:56:45;15.75;;;9.85;;
70045;SDS011;57385;41.832;23.494;2022-09-09T00:57:51;14.35;;;9.43;;
70045;SDS011;57385;41.832;23.494;2022-09-09T00:58:11;15.10;;;9.45;;
70045;SDS011;57385;41.832;23.494;2022-09-09T00:58:31;14.27;;;9.50;;
70045;SDS011;57385;41.832;23.494;2022-09-09T00:58:53;15.30;;;9.17;;
70045;SDS011;57385;41.832;23.494;2022-09-09T01:00:42;12.77;;;8.93;;
70045;SDS011;57385;41.832;23.494;2022-09-09T01:01:10;17.75;;;9.02;;
70045;SDS011;57385;41.832;23.494;2022-09-09T01:01:31;14.77;;;9.15;;
70045;SDS011;57385;41.832;23.494;2022-09-09T01:01:51;12.80;;;8.80;;
70045;SDS011;57385;41.832;23.494;2022-09-09T01:02:19;13.10;;;8.65;;
70045;SDS011;57385;41.832;23.494;2022-09-09T01:03:47;10.90;;;8.07;;
70045;SDS011;57385;41.832;23.494;2022-09-09T01:04:16;11.15;;;8.55;;
70045;SDS011;57385;41.832;23.494;2022-09-09T01:04:44;13.00;;;7.85;;
70045;SDS011;57385;41.832;23.494;2022-09-09T01:05:05;14.15;;;8.00;;
70045;SDS011;57385;41.832;23.494;2022-09-09T01:06:34;11.18;;;8.25;;
70045;SDS011;57385;41.832;23.494;2022-09-09T01:06:58;11.10;;;8.38;;
70045;SDS011;57385;41.832;23.494;2022-09-09T01:07:26;13.18;;;8.32;;
70045;SDS011;57385;41.832;23.494;2022-09-09T01:07:46;11.73;;;8.10;;
70045;SDS011;57385;41.832;23.494;2022-09-09T01:08:53;12.05;;;8.15;;
70045;SDS011;57385;41.832;23.494;2022-09-09T01:09:53;12.07;;;8.25;;
70045;SDS011;57385;41.832;23.494;2022-09-09T01:10:34;15.98;;;8.65;;
70045;SDS011;57385;41.832;23.494;2022-09-09T01:10:58;12.52;;;8.60;;
70045;SDS011;57385;41.832;23.494;2022-09-09T01:11:22;12.20;;;8.52;;
70045;SDS011;57385;41.832;23.494;2022-09-09T01:12:35;11.45;;;8.50;;
70045;SDS011;57385;41.832;23.494;2022-09-09T01:13:00;10.35;;;8.55;;
70045;SDS011;57385;41.832;23.494;2022-09-09T01:13:34;12.93;;;8.27;;
70045;SDS011;57385;41.832;23.494;2022-09-09T01:14:05;10.88;;;8.35;;
70045;SDS011;57385;41.832;23.494;2022-09-09T01:14:58;12.48;;;8.25;;
70045;SDS011;57385;41.832;23.494;2022-09-09T01:15:27;11.68;;;8.63;;
70045;SDS011;57385;41.832;23.494;2022-09-09T01:15:50;10.23;;;8.93;;
70045;SDS011;57385;41.832;23.494;2022-09-09T01:16:10;11.05;;;8.57;;
70045;SDS011;57385;41.832;23.494;2022-09-09T01:16:31;12.30;;;8.35;;
70045;SDS011;57385;41.832;23.494;2022-09-09T01:16:52;13.70;;;8.68;;
70045;SDS011;57385;41.832;23.494;2022-09-09T01:18:04;13.35;;;8.65;;
70045;SDS011;57385;41.832;23.494;2022-09-09T01:18:33;10.20;;;8.88;;
70045;SDS011;57385;41.832;23.494;2022-09-09T01:18:56;11.40;;;9.27;;
70045;SDS011;57385;41.832;23.494;2022-09-09T01:19:22;11.32;;;8.55;;
70045;SDS011;57385;41.832;23.494;2022-09-09T01:20:02;10.27;;;8.50;;
70045;SDS011;57385;41.832;23.494;2022-09-09T01:20:41;12.57;;;8.82;;
70045;SDS011;57385;41.832;23.494;2022-09-09T01:21:35;10.60;;;9.13;;
70045;SDS011;57385;41.832;23.494;2022-09-09T01:22:02;12.90;;;8.98;;
70045;SDS011;57385;41.832;23.494;2022-09-09T01:27:05;11.15;;;8.52;;
70045;SDS011;57385;41.832;23.494;2022-09-09T01:27:26;13.88;;;8.32;;
70045;SDS011;57385;41.832;23.494;2022-09-09T01:27:46;12.50;;;8.55;;
70045;SDS011;57385;41.832;23.494;2022-09-09T01:28:10;11.63;;;8.23;;
70045;SDS011;57385;41.832;23.494;2022-09-09T01:28:35;14.77;;;8.40;;
70045;SDS011;57385;41.832;23.494;2022-09-09T01:29:01;9.75;;;7.95;;
70045;SDS011;57385;41.832;23.494;2022-09-09T01:29:25;11.25;;;7.82;;
70045;SDS011;57385;41.832;23.494;2022-09-09T01:29:45;12.00;;;8.13;;
70045;SDS011;57385;41.832;23.494;2022-09-09T01:30:10;12.35;;;8.52;;
70045;SDS011;57385;41.832;23.494;2022-09-09T01:30:33;12.10;;;8.18;;
70045;SDS011;57385;41.832;23.494;2022-09-09T01:30:56;9.68;;;8.40;;
70045;SDS011;57385;41.832;23.494;2022-09-09T01:31:21;10.05;;;8.23;;
70045;SDS011;57385;41.832;23.494;2022-09-09T01:32:00;11.85;;;8.23;;
70045;SDS011;57385;41.832;23.494;2022-09-09T01:32:39;10.43;;;8.05;;
70045;SDS011;57385;41.832;23.494;2022-09-09T01:32:59;10.27;;;8.00;;
70045;SDS011;57385;41.832;23.494;2022-09-09T01:33:18;9.02;;;7.80;;
70045;SDS011;57385;41.832;23.494;2022-09-09T01:33:38;14.30;;;7.90;;
70045;SDS011;57385;41.832;23.494;2022-09-09T01:33:58;12.02;;;8.18;;
70045;SDS011;57385;41.832;23.494;2022-09-09T01:34:17;11.57;;;8.50;;
70045;SDS011;57385;41.832;23.494;2022-09-09T01:34:38;15.35;;;9.05;;
70045;SDS011;57385;41.832;23.494;2022-09-09T01:34:59;11.85;;;8.40;;
70045;SDS011;57385;41.832;23.494;2022-09-09T01:36:34;10.52;;;8.38;;
70045;SDS011;57385;41.832;23.494;2022-09-09T01:37:24;10.82;;;7.82;;
70045;SDS011;57385;41.832;23.494;2022-09-09T01:37:44;12.63;;;7.80;;
70045;SDS011;57385;41.832;23.494;2022-09-09T01:38:03;13.20;;;7.68;;
70045;SDS011;57385;41.832;23.494;2022-09-09T01:38:24;10.20;;;8.25;;
70045;SDS011;57385;41.832;23.494;2022-09-09T01:38:45;10.15;;;7.78;;
70045;SDS011;57385;41.832;23.494;2022-09-09T01:39:05;15.50;;;8.68;;
70045;SDS011;57385;41.832;23.494;2022-09-09T01:39:26;11.45;;;7.78;;
70045;SDS011;57385;41.832;23.494;2022-09-09T01:39:53;9.52;;;7.63;;
70045;SDS011;57385;41.832;23.494;2022-09-09T01:40:12;8.93;;;7.80;;
70045;SDS011;57385;41.832;23.494;2022-09-09T01:40:32;9.48;;;8.25;;
70045;SDS011;57385;41.832;23.494;2022-09-09T01:40:52;10.88;;;7.55;;
70045;SDS011;57385;41.832;23.494;2022-09-09T01:42:02;11.32;;;7.85;;
70045;SDS011;57385;41.832;23.494;2022-09-09T01:42:23;12.57;;;8.07;;
70045;SDS011;57385;41.832;23.494;2022-09-09T01:42:43;13.97;;;8.17;;
70045;SDS011;57385;41.832;23.494;2022-09-09T01:43:03;11.88;;;8.02;;
70045;SDS011;57385;41.832;23.494;2022-09-09T01:43:23;9.80;;;7.72;;
70045;SDS011;57385;41.832;23.494;2022-09-09T01:43:44;11.13;;;8.38;;
70045;SDS011;57385;41.832;23.494;2022-09-09T01:44:03;10.85;;;8.05;;
70045;SDS011;57385;41.832;23.494;2022-09-09T01:44:27;12.43;;;8.00;;
70045;SDS011;57385;41.832;23.494;2022-09-09T01:44:48;13.75;;;8.63;;
70045;SDS011;57385;41.832;23.494;2022-09-09T01:45:08;13.95;;;8.52;;
70045;SDS011;57385;41.832;23.494;2022-09-09T01:45:27;11.40;;;7.93;;
70045;SDS011;57385;41.832;23.494;2022-09-09T01:45:48;11.57;;;7.65;;
70045;SDS011;57385;41.832;23.494;2022-09-09T01:46:11;15.63;;;8.00;;
70045;SDS011;57385;41.832;23.494;2022-09-09T01:46:31;14.20;;;7.90;;
70045;SDS011;57385;41.832;23.494;2022-09-09T01:46:52;13.38;;;8.20;;
70045;SDS011;57385;41.832;23.494;2022-09-09T01:47:15;15.90;;;8.45;;
70045;SDS011;57385;41.832;23.494;2022-09-09T01:48:10;13.32;;;8.60;;
70045;SDS011;57385;41.832;23.494;2022-09-09T01:48:36;11.38;;;8.50;;
70045;SDS011;57385;41.832;23.494;2022-09-09T01:48:59;10.55;;;8.07;;
70045;SDS011;57385;41.832;23.494;2022-09-09T01:49:22;11.85;;;7.75;;
70045;SDS011;57385;41.832;23.494;2022-09-09T01:49:42;14.88;;;8.02;;
70045;SDS011;57385;41.832;23.494;2022-09-09T01:50:11;9.90;;;8.13;;
70045;SDS011;57385;41.832;23.494;2022-09-09T01:50:33;10.85;;;8.82;;
70045;SDS011;57385;41.832;23.494;2022-09-09T01:50:53;11.32;;;8.85;;
70045;SDS011;57385;41.832;23.494;2022-09-09T01:51:13;12.90;;;9.13;;
70045;SDS011;57385;41.832;23.494;2022-09-09T01:51:32;11.77;;;8.87;;
70045;SDS011;57385;41.832;23.494;2022-09-09T01:51:56;10.75;;;8.15;;
70045;SDS011;57385;41.832;23.494;2022-09-09T01:52:26;10.10;;;8.18;;
70045;SDS011;57385;41.832;23.494;2022-09-09T01:52:47;12.53;;;8.47;;
70045;SDS011;57385;41.832;23.494;2022-09-09T01:53:14;12.52;;;8.13;;
70045;SDS011;57385;41.832;23.494;2022-09-09T01:53:36;10.13;;;8.05;;
70045;SDS011;57385;41.832;23.494;2022-09-09T01:53:59;9.85;;;7.90;;
70045;SDS011;57385;41.832;23.494;2022-09-09T01:54:20;11.55;;;7.70;;
70045;SDS011;57385;41.832;23.494;2022-09-09T01:54:43;11.43;;;7.93;;
70045;SDS011;57385;41.832;23.494;2022-09-09T01:55:07;12.38;;;8.02;;
70045;SDS011;57385;41.832;23.494;2022-09-09T01:55:32;11.70;;;8.45;;
70045;SDS011;57385;41.832;23.494;2022-09-09T01:56:16;10.50;;;8.27;;
70045;SDS011;57385;41.832;23.494;2022-09-09T02:00:36;10.55;;;8.55;;
70045;SDS011;57385;41.832;23.494;2022-09-09T02:01:22;11.90;;;8.45;;
70045;SDS011;57385;41.832;23.494;2022-09-09T02:01:51;11.45;;;8.80;;
70045;SDS011;57385;41.832;23.494;2022-09-09T02:03:42;11.13;;;8.73;;
70045;SDS011;57385;41.832;23.494;2022-09-09T02:04:57;12.90;;;9.15;;
70045;SDS011;57385;41.832;23.494;2022-09-09T02:06:54;13.60;;;9.90;;
70045;SDS011;57385;41.832;23.494;2022-09-09T02:07:38;12.43;;;9.30;;
70045;SDS011;57385;41.832;23.494;2022-09-09T02:08:10;13.10;;;9.65;;
70045;SDS011;57385;41.832;23.494;2022-09-09T02:08:52;14.98;;;9.93;;
70045;SDS011;57385;41.832;23.494;2022-09-09T02:09:15;14.13;;;10.00;;
70045;SDS011;57385;41.832;23.494;2022-09-09T02:09:38;14.98;;;10.13;;
70045;SDS011;57385;41.832;23.494;2022-09-09T02:10:04;15.10;;;10.65;;
70045;SDS011;57385;41.832;23.494;2022-09-09T02:11:14;15.10;;;10.95;;
70045;SDS011;57385;41.832;23.494;2022-09-09T02:11:44;15.25;;;9.85;;
70045;SDS011;57385;41.832;23.494;2022-09-09T02:12:16;15.02;;;10.50;;
70045;SDS011;57385;41.832;23.494;2022-09-09T02:12:52;13.23;;;9.02;;
70045;SDS011;57385;41.832;23.494;2022-09-09T02:13:20;15.35;;;10.25;;
70045;SDS011;57385;41.832;23.494;2022-09-09T02:13:42;11.95;;;9.93;;
70045;SDS011;57385;41.832;23.494;2022-09-09T02:14:08;13.52;;;9.50;;
70045;SDS011;57385;41.832;23.494;2022-09-09T02:14:36;16.35;;;9.65;;
70045;SDS011;57385;41.832;23.494;2022-09-09T02:15:05;11.82;;;8.90;;
70045;SDS011;57385;41.832;23.494;2022-09-09T02:17:03;15.55;;;9.48;;
70045;SDS011;57385;41.832;23.494;2022-09-09T02:17:45;14.27;;;9.88;;
70045;SDS011;57385;41.832;23.494;2022-09-09T02:18:08;11.57;;;9.60;;
70045;SDS011;57385;41.832;23.494;2022-09-09T02:19:39;12.95;;;9.32;;
70045;SDS011;57385;41.832;23.494;2022-09-09T02:20:14;13.35;;;9.93;;
70045;SDS011;57385;41.832;23.494;2022-09-09T02:20:38;15.68;;;9.80;;
70045;SDS011;57385;41.832;23.494;2022-09-09T02:21:01;15.20;;;9.98;;
70045;SDS011;57385;41.832;23.494;2022-09-09T02:21:22;13.45;;;9.95;;
70045;SDS011;57385;41.832;23.494;2022-09-09T02:21:43;14.27;;;9.40;;
70045;SDS011;57385;41.832;23.494;2022-09-09T02:22:04;14.15;;;9.60;;
70045;SDS011;57385;41.832;23.494;2022-09-09T02:22:24;14.75;;;9.57;;
70045;SDS011;57385;41.832;23.494;2022-09-09T02:22:48;14.88;;;9.15;;
70045;SDS011;57385;41.832;23.494;2022-09-09T02:23:11;14.55;;;9.93;;
70045;SDS011;57385;41.832;23.494;2022-09-09T02:23:32;12.32;;;9.32;;
70045;SDS011;57385;41.832;23.494;2022-09-09T02:23:56;13.40;;;9.93;;
70045;SDS011;57385;41.832;23.494;2022-09-09T02:24:21;12.57;;;10.38;;
70045;SDS011;57385;41.832;23.494;2022-09-09T02:24:51;14.30;;;11.25;;
70045;SDS011;57385;41.832;23.494;2022-09-09T02:25:18;15.50;;;11.63;;
70045;SDS011;57385;41.832;23.494;2022-09-09T02:25:42;13.02;;;11.20;;
70045;SDS011;57385;41.832;23.494;2022-09-09T02:26:11;13.95;;;11.35;;
70045;SDS011;57385;41.832;23.494;2022-09-09T02:26:32;15.38;;;11.40;;
70045;SDS011;57385;41.832;23.494;2022-09-09T02:26:58;15.02;;;11.57;;
70045;SDS011;57385;41.832;23.494;2022-09-09T02:27:21;16.88;;;13.15;;
70045;SDS011;57385;41.832;23.494;2022-09-09T02:27:42;17.58;;;13.35;;
70045;SDS011;57385;41.832;23.494;2022-09-09T02:28:04;18.80;;;13.82;;
70045;SDS011;57385;41.832;23.494;2022-09-09T02:28:27;15.73;;;12.85;;
70045;SDS011;57385;41.832;23.494;2022-09-09T02:28:49;13.75;;;12.30;;
70045;SDS011;57385;41.832;23.494;2022-09-09T02:29:22;16.27;;;12.15;;
70045;SDS011;57385;41.832;23.494;2022-09-09T02:29:45;14.25;;;12.02;;
70045;SDS011;57385;41.832;23.494;2022-09-09T02:30:05;15.38;;;12.63;;
70045;SDS011;57385;41.832;23.494;2022-09-09T02:30:34;13.85;;;12.10;;
70045;SDS011;57385;41.832;23.494;2022-09-09T02:30:55;15.57;;;12.10;;
70045;SDS011;57385;41.832;23.494;2022-09-09T02:31:20;19.27;;;12.95;;
70045;SDS011;57385;41.832;23.494;2022-09-09T02:31:45;16.13;;;12.00;;
70045;SDS011;57385;41.832;23.494;2022-09-09T02:32:16;16.00;;;13.10;;
70045;SDS011;57385;41.832;23.494;2022-09-09T02:32:39;16.63;;;12.85;;
70045;SDS011;57385;41.832;23.494;2022-09-09T02:33:04;14.05;;;12.43;;
70045;SDS011;57385;41.832;23.494;2022-09-09T02:33:46;14.65;;;12.25;;
70045;SDS011;57385;41.832;23.494;2022-09-09T02:34:11;17.83;;;13.20;;
70045;SDS011;57385;41.832;23.494;2022-09-09T02:34:34;14.45;;;12.20;;
70045;SDS011;57385;41.832;23.494;2022-09-09T02:35:01;15.25;;;12.25;;
70045;SDS011;57385;41.832;23.494;2022-09-09T02:35:24;15.93;;;11.77;;
70045;SDS011;57385;41.832;23.494;2022-09-09T02:35:46;15.15;;;12.38;;
70045;SDS011;57385;41.832;23.494;2022-09-09T02:36:11;17.48;;;12.12;;
70045;SDS011;57385;41.832;23.494;2022-09-09T02:36:35;15.43;;;12.18;;
70045;SDS011;57385;41.832;23.494;2022-09-09T02:36:55;17.50;;;12.05;;
70045;SDS011;57385;41.832;23.494;2022-09-09T02:37:19;17.05;;;11.85;;
70045;SDS011;57385;41.832;23.494;2022-09-09T02:37:44;16.85;;;11.57;;
70045;SDS011;57385;41.832;23.494;2022-09-09T02:38:05;14.80;;;11.90;;
70045;SDS011;57385;41.832;23.494;2022-09-09T02:38:29;13.77;;;11.13;;
70045;SDS011;57385;41.832;23.494;2022-09-09T02:38:59;20.23;;;12.23;;
70045;SDS011;57385;41.832;23.494;2022-09-09T02:39:22;15.48;;;11.52;;
70045;SDS011;57385;41.832;23.494;2022-09-09T02:39:43;16.80;;;11.85;;
70045;SDS011;57385;41.832;23.494;2022-09-09T02:40:06;16.00;;;11.40;;
70045;SDS011;57385;41.832;23.494;2022-09-09T02:40:31;12.93;;;11.05;;
70045;SDS011;57385;41.832;23.494;2022-09-09T02:40:54;17.98;;;11.40;;
70045;SDS011;57385;41.832;23.494;2022-09-09T02:41:13;16.37;;;11.50;;
70045;SDS011;57385;41.832;23.494;2022-09-09T02:41:34;14.65;;;12.13;;
70045;SDS011;57385;41.832;23.494;2022-09-09T02:41:55;16.73;;;12.05;;
70045;SDS011;57385;41.832;23.494;2022-09-09T02:42:22;16.42;;;11.75;;
70045;SDS011;57385;41.832;23.494;2022-09-09T02:42:44;15.68;;;11.75;;
70045;SDS011;57385;41.832;23.494;2022-09-09T02:43:05;13.82;;;10.95;;
70045;SDS011;57385;41.832;23.494;2022-09-09T02:43:25;12.05;;;10.73;;
70045;SDS011;57385;41.832;23.494;2022-09-09T02:43:44;16.80;;;11.00;;
70045;SDS011;57385;41.832;23.494;2022-09-09T02:44:16;12.88;;;10.90;;
70045;SDS011;57385;41.832;23.494;2022-09-09T02:44:39;14.77;;;11.40;;
70045;SDS011;57385;41.832;23.494;2022-09-09T02:45:01;13.57;;;10.90;;
70045;SDS011;57385;41.832;23.494;2022-09-09T02:45:24;12.68;;;10.20;;
70045;SDS011;57385;41.832;23.494;2022-09-09T02:45:51;12.52;;;11.05;;
70045;SDS011;57385;41.832;23.494;2022-09-09T02:48:16;13.45;;;10.65;;
70045;SDS011;57385;41.832;23.494;2022-09-09T02:49:06;11.55;;;10.00;;
70045;SDS011;57385;41.832;23.494;2022-09-09T02:49:48;14.88;;;10.50;;
70045;SDS011;57385;41.832;23.494;2022-09-09T02:50:43;12.63;;;10.05;;
70045;SDS011;57385;41.832;23.494;2022-09-09T02:51:10;12.88;;;10.02;;
70045;SDS011;57385;41.832;23.494;2022-09-09T02:51:45;13.02;;;10.10;;
70045;SDS011;57385;41.832;23.494;2022-09-09T02:52:15;12.93;;;10.13;;
70045;SDS011;57385;41.832;23.494;2022-09-09T02:53:21;12.15;;;9.70;;
70045;SDS011;57385;41.832;23.494;2022-09-09T02:54:31;13.18;;;10.30;;
70045;SDS011;57385;41.832;23.494;2022-09-09T02:54:57;10.90;;;9.40;;
70045;SDS011;57385;41.832;23.494;2022-09-09T02:55:27;12.68;;;9.63;;
70045;SDS011;57385;41.832;23.494;2022-09-09T02:56:04;14.00;;;10.43;;
70045;SDS011;57385;41.832;23.494;2022-09-09T02:56:30;12.43;;;9.85;;
70045;SDS011;57385;41.832;23.494;2022-09-09T02:56:57;12.88;;;9.23;;
70045;SDS011;57385;41.832;23.494;2022-09-09T02:57:42;15.18;;;9.93;;
70045;SDS011;57385;41.832;23.494;2022-09-09T02:58:04;12.55;;;9.45;;
70045;SDS011;57385;41.832;23.494;2022-09-09T02:58:28;13.25;;;9.13;;
70045;SDS011;57385;41.832;23.494;2022-09-09T02:58:52;15.15;;;9.65;;
70045;SDS011;57385;41.832;23.494;2022-09-09T02:59:11;12.45;;;9.60;;
70045;SDS011;57385;41.832;23.494;2022-09-09T02:59:31;12.10;;;9.93;;
70045;SDS011;57385;41.832;23.494;2022-09-09T02:59:52;12.90;;;9.55;;
70045;SDS011;57385;41.832;23.494;2022-09-09T03:00:11;13.05;;;9.65;;
70045;SDS011;57385;41.832;23.494;2022-09-09T03:00:33;13.52;;;9.85;;
70045;SDS011;57385;41.832;23.494;2022-09-09T03:00:55;11.20;;;9.88;;
70045;SDS011;57385;41.832;23.494;2022-09-09T03:01:15;14.05;;;10.70;;
70045;SDS011;57385;41.832;23.494;2022-09-09T03:01:35;14.75;;;10.18;;
70045;SDS011;57385;41.832;23.494;2022-09-09T03:01:54;13.53;;;9.70;;
70045;SDS011;57385;41.832;23.494;2022-09-09T03:02:14;11.63;;;10.03;;
70045;SDS011;57385;41.832;23.494;2022-09-09T03:02:36;14.98;;;11.43;;
70045;SDS011;57385;41.832;23.494;2022-09-09T03:02:58;18.08;;;12.43;;
70045;SDS011;57385;41.832;23.494;2022-09-09T03:03:19;16.02;;;12.10;;
70045;SDS011;57385;41.832;23.494;2022-09-09T03:03:42;16.02;;;11.52;;
70045;SDS011;57385;41.832;23.494;2022-09-09T03:04:04;15.30;;;11.98;;
70045;SDS011;57385;41.832;23.494;2022-09-09T03:04:24;15.50;;;12.23;;
70045;SDS011;57385;41.832;23.494;2022-09-09T03:04:44;17.40;;;12.23;;
70045;SDS011;57385;41.832;23.494;2022-09-09T03:05:05;18.38;;;12.82;;
70045;SDS011;57385;41.832;23.494;2022-09-09T03:05:25;16.00;;;13.45;;
70045;SDS011;57385;41.832;23.494;2022-09-09T03:05:46;16.08;;;13.40;;
70045;SDS011;57385;41.832;23.494;2022-09-09T03:06:06;17.48;;;12.88;;
70045;SDS011;57385;41.832;23.494;2022-09-09T03:06:25;18.67;;;12.85;;
70045;SDS011;57385;41.832;23.494;2022-09-09T03:06:53;18.90;;;13.18;;
70045;SDS011;57385;41.832;23.494;2022-09-09T03:07:14;17.42;;;12.95;;
70045;SDS011;57385;41.832;23.494;2022-09-09T03:07:34;18.48;;;13.70;;
70045;SDS011;57385;41.832;23.494;2022-09-09T03:07:54;18.42;;;13.82;;
70045;SDS011;57385;41.832;23.494;2022-09-09T03:08:14;16.85;;;13.20;;
70045;SDS011;57385;41.832;23.494;2022-09-09T03:08:35;17.60;;;13.23;;
70045;SDS011;57385;41.832;23.494;2022-09-09T03:08:54;17.03;;;12.90;;
70045;SDS011;57385;41.832;23.494;2022-09-09T03:09:18;17.23;;;13.07;;
70045;SDS011;57385;41.832;23.494;2022-09-09T03:09:37;16.02;;;13.00;;
70045;SDS011;57385;41.832;23.494;2022-09-09T03:09:58;17.67;;;12.60;;
70045;SDS011;57385;41.832;23.494;2022-09-09T03:10:19;17.27;;;13.02;;
70045;SDS011;57385;41.832;23.494;2022-09-09T03:10:39;15.35;;;13.15;;
70045;SDS011;57385;41.832;23.494;2022-09-09T03:10:59;14.75;;;12.93;;
70045;SDS011;57385;41.832;23.494;2022-09-09T03:11:21;16.42;;;13.00;;
70045;SDS011;57385;41.832;23.494;2022-09-09T03:11:40;17.25;;;12.80;;
70045;SDS011;57385;41.832;23.494;2022-09-09T03:12:00;17.52;;;13.25;;
70045;SDS011;57385;41.832;23.494;2022-09-09T03:12:21;19.75;;;12.93;;
70045;SDS011;57385;41.832;23.494;2022-09-09T03:12:41;17.58;;;12.85;;
70045;SDS011;57385;41.832;23.494;2022-09-09T03:13:01;16.20;;;13.55;;
70045;SDS011;57385;41.832;23.494;2022-09-09T03:13:25;16.25;;;13.48;;
70045;SDS011;57385;41.832;23.494;2022-09-09T03:13:44;16.37;;;13.30;;
70045;SDS011;57385;41.832;23.494;2022-09-09T03:14:04;15.75;;;13.20;;
70045;SDS011;57385;41.832;23.494;2022-09-09T03:14:24;15.52;;;12.90;;
70045;SDS011;57385;41.832;23.494;2022-09-09T03:14:44;14.35;;;12.38;;
70045;SDS011;57385;41.832;23.494;2022-09-09T03:15:05;14.68;;;12.43;;
70045;SDS011;57385;41.832;23.494;2022-09-09T03:15:25;16.88;;;12.20;;
70045;SDS011;57385;41.832;23.494;2022-09-09T03:15:45;14.60;;;12.33;;
70045;SDS011;57385;41.832;23.494;2022-09-09T03:16:08;16.00;;;12.02;;